sensor_id;sensor_type;location;lat;lon;timestamp;P1;durP1;ratioP1;P2;durP2;ratioP2
66129;SDS011;52930;51.464;11.764;2023-07-13T00:01:29;7.95;;;1.50;;
66129;SDS011;52930;51.464;11.764;2023-07-13T00:03:57;5.70;;;1.40;;
66129;SDS011;52930;51.464;11.764;2023-07-13T00:06:23;5.82;;;1.23;;
66129;SDS011;52930;51.464;11.764;2023-07-13T00:08:48;3.88;;;1.10;;
66129;SDS011;52930;51.464;11.764;2023-07-13T00:11:14;5.60;;;1.27;;
66129;SDS011;52930;51.464;11.764;2023-07-13T00:13:40;5.03;;;1.33;;
66129;SDS011;52930;51.464;11.764;2023-07-13T00:16:07;5.97;;;1.30;;
66129;SDS011;52930;51.464;11.764;2023-07-13T00:18:32;4.53;;;1.20;;
66129;SDS011;52930;51.464;11.764;2023-07-13T00:20:58;9.00;;;1.57;;
66129;SDS011;52930;51.464;11.764;2023-07-13T00:23:39;7.45;;;1.60;;
66129;SDS011;52930;51.464;11.764;2023-07-13T00:26:06;4.28;;;1.58;;
66129;SDS011;52930;51.464;11.764;2023-07-13T00:28:32;4.97;;;1.30;;
66129;SDS011;52930;51.464;11.764;2023-07-13T00:30:58;6.00;;;1.50;;
66129;SDS011;52930;51.464;11.764;2023-07-13T00:33:24;6.03;;;1.70;;
66129;SDS011;52930;51.464;11.764;2023-07-13T00:35:50;3.90;;;1.55;;
66129;SDS011;52930;51.464;11.764;2023-07-13T00:38:15;5.03;;;1.80;;
66129;SDS011;52930;51.464;11.764;2023-07-13T00:40:41;3.77;;;1.70;;
66129;SDS011;52930;51.464;11.764;2023-07-13T00:43:14;6.05;;;2.00;;
66129;SDS011;52930;51.464;11.764;2023-07-13T00:48:13;4.40;;;1.30;;
66129;SDS011;52930;51.464;11.764;2023-07-13T00:50:39;4.28;;;1.50;;
66129;SDS011;52930;51.464;11.764;2023-07-13T00:53:06;7.13;;;1.85;;
66129;SDS011;52930;51.464;11.764;2023-07-13T00:55:32;6.07;;;1.92;;
66129;SDS011;52930;51.464;11.764;2023-07-13T00:57:58;5.20;;;1.80;;
66129;SDS011;52930;51.464;11.764;2023-07-13T01:00:24;6.57;;;1.85;;
66129;SDS011;52930;51.464;11.764;2023-07-13T01:02:50;6.78;;;2.30;;
66129;SDS011;52930;51.464;11.764;2023-07-13T01:05:18;9.47;;;2.00;;
66129;SDS011;52930;51.464;11.764;2023-07-13T01:07:45;6.72;;;2.17;;
66129;SDS011;52930;51.464;11.764;2023-07-13T01:10:13;7.40;;;2.40;;
66129;SDS011;52930;51.464;11.764;2023-07-13T01:12:39;5.30;;;2.00;;
66129;SDS011;52930;51.464;11.764;2023-07-13T01:15:04;7.67;;;2.13;;
66129;SDS011;52930;51.464;11.764;2023-07-13T01:17:30;6.20;;;1.92;;
66129;SDS011;52930;51.464;11.764;2023-07-13T01:19:56;5.50;;;2.13;;
66129;SDS011;52930;51.464;11.764;2023-07-13T01:22:22;5.43;;;2.13;;
66129;SDS011;52930;51.464;11.764;2023-07-13T01:24:51;7.07;;;2.23;;
66129;SDS011;52930;51.464;11.764;2023-07-13T01:27:20;7.22;;;2.58;;
66129;SDS011;52930;51.464;11.764;2023-07-13T01:29:48;6.93;;;2.55;;
66129;SDS011;52930;51.464;11.764;2023-07-13T01:32:19;5.25;;;2.03;;
66129;SDS011;52930;51.464;11.764;2023-07-13T01:34:47;5.78;;;2.35;;
66129;SDS011;52930;51.464;11.764;2023-07-13T01:37:13;6.00;;;2.10;;
66129;SDS011;52930;51.464;11.764;2023-07-13T01:39:38;6.27;;;2.43;;
66129;SDS011;52930;51.464;11.764;2023-07-13T01:42:04;6.28;;;2.10;;
66129;SDS011;52930;51.464;11.764;2023-07-13T01:44:29;5.97;;;2.23;;
66129;SDS011;52930;51.464;11.764;2023-07-13T01:46:55;5.63;;;2.20;;
66129;SDS011;52930;51.464;11.764;2023-07-13T01:49:21;5.57;;;1.90;;
66129;SDS011;52930;51.464;11.764;2023-07-13T01:51:46;6.53;;;2.13;;
66129;SDS011;52930;51.464;11.764;2023-07-13T01:54:12;5.03;;;2.10;;
66129;SDS011;52930;51.464;11.764;2023-07-13T01:56:37;4.77;;;2.00;;
66129;SDS011;52930;51.464;11.764;2023-07-13T01:59:02;5.13;;;2.10;;
66129;SDS011;52930;51.464;11.764;2023-07-13T02:01:28;6.07;;;2.20;;
66129;SDS011;52930;51.464;11.764;2023-07-13T02:03:53;5.13;;;1.83;;
66129;SDS011;52930;51.464;11.764;2023-07-13T02:06:18;5.97;;;2.37;;
66129;SDS011;52930;51.464;11.764;2023-07-13T02:08:44;5.03;;;2.13;;
66129;SDS011;52930;51.464;11.764;2023-07-13T02:11:09;6.13;;;2.17;;
66129;SDS011;52930;51.464;11.764;2023-07-13T02:13:35;6.27;;;2.37;;
66129;SDS011;52930;51.464;11.764;2023-07-13T02:16:00;5.68;;;2.00;;
66129;SDS011;52930;51.464;11.764;2023-07-13T02:18:25;5.53;;;2.40;;
66129;SDS011;52930;51.464;11.764;2023-07-13T02:20:51;5.97;;;2.40;;
66129;SDS011;52930;51.464;11.764;2023-07-13T02:23:16;7.03;;;2.10;;
66129;SDS011;52930;51.464;11.764;2023-07-13T02:25:42;6.07;;;2.30;;
66129;SDS011;52930;51.464;11.764;2023-07-13T02:28:07;6.13;;;2.80;;
66129;SDS011;52930;51.464;11.764;2023-07-13T02:30:33;5.25;;;2.25;;
66129;SDS011;52930;51.464;11.764;2023-07-13T02:32:59;8.17;;;2.77;;
66129;SDS011;52930;51.464;11.764;2023-07-13T02:35:24;7.50;;;2.50;;
66129;SDS011;52930;51.464;11.764;2023-07-13T02:37:50;7.28;;;2.92;;
66129;SDS011;52930;51.464;11.764;2023-07-13T02:40:15;7.30;;;2.50;;
66129;SDS011;52930;51.464;11.764;2023-07-13T02:42:41;6.37;;;2.43;;
66129;SDS011;52930;51.464;11.764;2023-07-13T02:45:07;6.50;;;2.83;;
66129;SDS011;52930;51.464;11.764;2023-07-13T02:47:33;5.13;;;2.42;;
66129;SDS011;52930;51.464;11.764;2023-07-13T02:49:58;8.43;;;2.20;;
66129;SDS011;52930;51.464;11.764;2023-07-13T02:52:24;5.50;;;2.37;;
66129;SDS011;52930;51.464;11.764;2023-07-13T02:54:50;7.28;;;2.60;;
66129;SDS011;52930;51.464;11.764;2023-07-13T02:57:15;7.10;;;2.40;;
66129;SDS011;52930;51.464;11.764;2023-07-13T02:59:40;7.23;;;2.40;;
66129;SDS011;52930;51.464;11.764;2023-07-13T03:02:06;7.32;;;2.95;;
66129;SDS011;52930;51.464;11.764;2023-07-13T03:04:31;5.37;;;2.70;;
66129;SDS011;52930;51.464;11.764;2023-07-13T03:06:57;5.67;;;2.50;;
66129;SDS011;52930;51.464;11.764;2023-07-13T03:09:23;6.22;;;2.88;;
66129;SDS011;52930;51.464;11.764;2023-07-13T03:11:51;7.93;;;2.53;;
66129;SDS011;52930;51.464;11.764;2023-07-13T03:14:17;7.60;;;2.80;;
66129;SDS011;52930;51.464;11.764;2023-07-13T03:16:43;7.33;;;2.97;;
66129;SDS011;52930;51.464;11.764;2023-07-13T03:19:08;7.97;;;2.70;;
66129;SDS011;52930;51.464;11.764;2023-07-13T03:21:34;5.88;;;2.60;;
66129;SDS011;52930;51.464;11.764;2023-07-13T03:23:59;6.50;;;2.80;;
66129;SDS011;52930;51.464;11.764;2023-07-13T03:26:24;7.23;;;2.90;;
66129;SDS011;52930;51.464;11.764;2023-07-13T03:28:50;5.10;;;2.23;;
66129;SDS011;52930;51.464;11.764;2023-07-13T03:31:16;10.23;;;2.90;;
66129;SDS011;52930;51.464;11.764;2023-07-13T03:33:53;6.60;;;2.50;;
66129;SDS011;52930;51.464;11.764;2023-07-13T03:36:20;5.80;;;2.88;;
66129;SDS011;52930;51.464;11.764;2023-07-13T03:38:48;7.93;;;2.53;;
66129;SDS011;52930;51.464;11.764;2023-07-13T03:41:15;6.47;;;2.80;;
66129;SDS011;52930;51.464;11.764;2023-07-13T03:43:41;5.70;;;2.80;;
66129;SDS011;52930;51.464;11.764;2023-07-13T03:46:07;7.10;;;2.70;;
66129;SDS011;52930;51.464;11.764;2023-07-13T03:48:32;7.13;;;2.47;;
66129;SDS011;52930;51.464;11.764;2023-07-13T03:50:57;7.17;;;2.77;;
66129;SDS011;52930;51.464;11.764;2023-07-13T03:53:23;6.20;;;2.60;;
66129;SDS011;52930;51.464;11.764;2023-07-13T03:55:48;6.93;;;2.50;;
66129;SDS011;52930;51.464;11.764;2023-07-13T04:01:11;7.70;;;2.53;;
66129;SDS011;52930;51.464;11.764;2023-07-13T04:03:37;9.18;;;3.42;;
66129;SDS011;52930;51.464;11.764;2023-07-13T04:06:03;9.27;;;2.90;;
66129;SDS011;52930;51.464;11.764;2023-07-13T04:08:31;9.43;;;3.03;;
66129;SDS011;52930;51.464;11.764;2023-07-13T04:10:58;7.22;;;2.80;;
66129;SDS011;52930;51.464;11.764;2023-07-13T04:13:24;9.45;;;3.05;;
66129;SDS011;52930;51.464;11.764;2023-07-13T04:15:50;9.27;;;3.23;;
66129;SDS011;52930;51.464;11.764;2023-07-13T04:18:16;8.23;;;2.90;;
66129;SDS011;52930;51.464;11.764;2023-07-13T04:20:41;8.03;;;2.80;;
66129;SDS011;52930;51.464;11.764;2023-07-13T04:23:07;7.25;;;2.60;;
66129;SDS011;52930;51.464;11.764;2023-07-13T04:25:32;7.93;;;3.00;;
66129;SDS011;52930;51.464;11.764;2023-07-13T04:27:57;8.37;;;2.43;;
66129;SDS011;52930;51.464;11.764;2023-07-13T04:30:23;7.37;;;2.53;;
66129;SDS011;52930;51.464;11.764;2023-07-13T04:32:50;7.72;;;2.50;;
66129;SDS011;52930;51.464;11.764;2023-07-13T04:35:17;8.93;;;2.20;;
66129;SDS011;52930;51.464;11.764;2023-07-13T04:37:42;5.03;;;2.30;;
66129;SDS011;52930;51.464;11.764;2023-07-13T04:40:08;7.33;;;2.40;;
66129;SDS011;52930;51.464;11.764;2023-07-13T04:42:36;8.40;;;2.40;;
66129;SDS011;52930;51.464;11.764;2023-07-13T04:45:02;7.17;;;2.43;;
66129;SDS011;52930;51.464;11.764;2023-07-13T04:47:29;9.77;;;2.40;;
66129;SDS011;52930;51.464;11.764;2023-07-13T04:49:55;11.27;;;2.63;;
66129;SDS011;52930;51.464;11.764;2023-07-13T04:52:21;8.25;;;2.88;;
66129;SDS011;52930;51.464;11.764;2023-07-13T04:54:46;7.83;;;2.30;;
66129;SDS011;52930;51.464;11.764;2023-07-13T04:57:12;4.50;;;1.90;;
66129;SDS011;52930;51.464;11.764;2023-07-13T04:59:37;7.47;;;2.17;;
66129;SDS011;52930;51.464;11.764;2023-07-13T05:02:02;6.90;;;2.13;;
66129;SDS011;52930;51.464;11.764;2023-07-13T05:04:28;6.53;;;2.35;;
66129;SDS011;52930;51.464;11.764;2023-07-13T05:06:53;7.40;;;2.53;;
66129;SDS011;52930;51.464;11.764;2023-07-13T05:09:18;6.60;;;2.27;;
66129;SDS011;52930;51.464;11.764;2023-07-13T05:11:44;5.97;;;2.20;;
66129;SDS011;52930;51.464;11.764;2023-07-13T05:14:09;7.47;;;2.13;;
66129;SDS011;52930;51.464;11.764;2023-07-13T05:16:35;7.10;;;2.40;;
66129;SDS011;52930;51.464;11.764;2023-07-13T05:19:01;8.67;;;2.20;;
66129;SDS011;52930;51.464;11.764;2023-07-13T05:21:26;7.95;;;2.67;;
66129;SDS011;52930;51.464;11.764;2023-07-13T05:23:52;8.07;;;2.60;;
66129;SDS011;52930;51.464;11.764;2023-07-13T05:26:17;9.53;;;2.80;;
66129;SDS011;52930;51.464;11.764;2023-07-13T05:28:42;9.43;;;2.50;;
66129;SDS011;52930;51.464;11.764;2023-07-13T05:31:08;13.93;;;2.27;;
66129;SDS011;52930;51.464;11.764;2023-07-13T05:33:34;16.48;;;2.60;;
66129;SDS011;52930;51.464;11.764;2023-07-13T05:36:00;13.00;;;2.20;;
66129;SDS011;52930;51.464;11.764;2023-07-13T05:38:28;12.35;;;2.70;;
66129;SDS011;52930;51.464;11.764;2023-07-13T05:40:54;8.60;;;2.33;;
66129;SDS011;52930;51.464;11.764;2023-07-13T05:43:21;9.85;;;2.55;;
66129;SDS011;52930;51.464;11.764;2023-07-13T05:45:46;9.50;;;2.07;;
66129;SDS011;52930;51.464;11.764;2023-07-13T05:48:11;14.53;;;2.20;;
66129;SDS011;52930;51.464;11.764;2023-07-13T05:50:37;8.43;;;2.10;;
66129;SDS011;52930;51.464;11.764;2023-07-13T05:53:02;8.20;;;2.23;;
66129;SDS011;52930;51.464;11.764;2023-07-13T05:55:28;8.50;;;2.10;;
66129;SDS011;52930;51.464;11.764;2023-07-13T05:57:53;11.17;;;2.17;;
66129;SDS011;52930;51.464;11.764;2023-07-13T06:00:18;12.03;;;2.27;;
66129;SDS011;52930;51.464;11.764;2023-07-13T06:02:44;8.43;;;2.53;;
66129;SDS011;52930;51.464;11.764;2023-07-13T06:05:09;6.93;;;2.10;;
66129;SDS011;52930;51.464;11.764;2023-07-13T06:07:35;12.83;;;2.20;;
66129;SDS011;52930;51.464;11.764;2023-07-13T06:10:00;13.57;;;1.77;;
66129;SDS011;52930;51.464;11.764;2023-07-13T06:12:26;6.63;;;1.70;;
66129;SDS011;52930;51.464;11.764;2023-07-13T06:14:51;11.15;;;2.30;;
66129;SDS011;52930;51.464;11.764;2023-07-13T06:17:16;9.83;;;1.87;;
66129;SDS011;52930;51.464;11.764;2023-07-13T06:19:42;7.87;;;1.90;;
66129;SDS011;52930;51.464;11.764;2023-07-13T06:22:07;9.20;;;2.30;;
66129;SDS011;52930;51.464;11.764;2023-07-13T06:24:32;10.00;;;1.98;;
66129;SDS011;52930;51.464;11.764;2023-07-13T06:26:58;7.60;;;1.97;;
66129;SDS011;52930;51.464;11.764;2023-07-13T06:29:23;7.53;;;1.60;;
66129;SDS011;52930;51.464;11.764;2023-07-13T06:31:48;7.63;;;1.70;;
66129;SDS011;52930;51.464;11.764;2023-07-13T06:34:14;11.93;;;2.20;;
66129;SDS011;52930;51.464;11.764;2023-07-13T06:36:39;7.93;;;1.53;;
66129;SDS011;52930;51.464;11.764;2023-07-13T06:39:06;8.37;;;2.07;;
66129;SDS011;52930;51.464;11.764;2023-07-13T06:41:31;9.35;;;2.00;;
66129;SDS011;52930;51.464;11.764;2023-07-13T06:43:58;7.20;;;1.75;;
66129;SDS011;52930;51.464;11.764;2023-07-13T06:46:23;7.57;;;1.40;;
66129;SDS011;52930;51.464;11.764;2023-07-13T06:48:49;6.37;;;1.67;;
66129;SDS011;52930;51.464;11.764;2023-07-13T06:51:14;7.13;;;1.50;;
66129;SDS011;52930;51.464;11.764;2023-07-13T06:53:40;5.23;;;1.33;;
66129;SDS011;52930;51.464;11.764;2023-07-13T06:56:05;8.30;;;1.52;;
66129;SDS011;52930;51.464;11.764;2023-07-13T06:58:31;8.30;;;1.60;;
66129;SDS011;52930;51.464;11.764;2023-07-13T07:00:58;6.43;;;1.50;;
66129;SDS011;52930;51.464;11.764;2023-07-13T07:03:23;6.33;;;1.90;;
66129;SDS011;52930;51.464;11.764;2023-07-13T07:05:48;5.23;;;1.10;;
66129;SDS011;52930;51.464;11.764;2023-07-13T07:08:14;5.90;;;1.60;;
66129;SDS011;52930;51.464;11.764;2023-07-13T07:10:40;7.30;;;1.70;;
66129;SDS011;52930;51.464;11.764;2023-07-13T07:13:05;8.35;;;1.88;;
66129;SDS011;52930;51.464;11.764;2023-07-13T07:15:31;7.03;;;1.97;;
66129;SDS011;52930;51.464;11.764;2023-07-13T07:17:56;9.32;;;1.52;;
66129;SDS011;52930;51.464;11.764;2023-07-13T07:20:22;8.80;;;1.90;;
66129;SDS011;52930;51.464;11.764;2023-07-13T07:22:47;9.13;;;1.73;;
66129;SDS011;52930;51.464;11.764;2023-07-13T07:25:13;5.45;;;1.63;;
66129;SDS011;52930;51.464;11.764;2023-07-13T07:27:38;6.63;;;1.97;;
66129;SDS011;52930;51.464;11.764;2023-07-13T07:30:04;6.60;;;1.67;;
66129;SDS011;52930;51.464;11.764;2023-07-13T07:32:30;8.13;;;1.88;;
66129;SDS011;52930;51.464;11.764;2023-07-13T07:34:56;7.13;;;2.10;;
66129;SDS011;52930;51.464;11.764;2023-07-13T07:37:22;6.77;;;1.83;;
66129;SDS011;52930;51.464;11.764;2023-07-13T07:39:47;6.80;;;1.67;;
66129;SDS011;52930;51.464;11.764;2023-07-13T07:42:13;7.05;;;1.60;;
66129;SDS011;52930;51.464;11.764;2023-07-13T07:44:39;7.23;;;1.40;;
66129;SDS011;52930;51.464;11.764;2023-07-13T07:47:05;7.72;;;1.50;;
66129;SDS011;52930;51.464;11.764;2023-07-13T07:49:31;5.47;;;1.70;;
66129;SDS011;52930;51.464;11.764;2023-07-13T07:51:56;9.87;;;1.80;;
66129;SDS011;52930;51.464;11.764;2023-07-13T07:54:21;5.23;;;1.40;;
66129;SDS011;52930;51.464;11.764;2023-07-13T07:56:47;5.40;;;1.40;;
66129;SDS011;52930;51.464;11.764;2023-07-13T07:59:12;9.83;;;1.70;;
66129;SDS011;52930;51.464;11.764;2023-07-13T08:01:37;5.93;;;1.65;;
66129;SDS011;52930;51.464;11.764;2023-07-13T08:04:03;5.73;;;1.50;;
66129;SDS011;52930;51.464;11.764;2023-07-13T08:06:28;6.57;;;1.63;;
66129;SDS011;52930;51.464;11.764;2023-07-13T08:08:54;8.63;;;2.10;;
66129;SDS011;52930;51.464;11.764;2023-07-13T08:11:20;5.32;;;1.90;;
66129;SDS011;52930;51.464;11.764;2023-07-13T08:13:45;6.57;;;1.63;;
66129;SDS011;52930;51.464;11.764;2023-07-13T08:16:11;5.40;;;1.97;;
66129;SDS011;52930;51.464;11.764;2023-07-13T08:18:36;5.57;;;1.50;;
66129;SDS011;52930;51.464;11.764;2023-07-13T08:21:05;4.63;;;1.73;;
66129;SDS011;52930;51.464;11.764;2023-07-13T08:23:33;6.72;;;2.15;;
66129;SDS011;52930;51.464;11.764;2023-07-13T08:25:58;5.50;;;1.48;;
66129;SDS011;52930;51.464;11.764;2023-07-13T08:28:26;7.60;;;1.75;;
66129;SDS011;52930;51.464;11.764;2023-07-13T08:30:52;6.28;;;1.70;;
66129;SDS011;52930;51.464;11.764;2023-07-13T08:33:18;5.23;;;1.60;;
66129;SDS011;52930;51.464;11.764;2023-07-13T08:35:48;6.00;;;1.47;;
66129;SDS011;52930;51.464;11.764;2023-07-13T08:38:14;5.40;;;1.60;;
66129;SDS011;52930;51.464;11.764;2023-07-13T08:40:40;5.30;;;1.88;;
66129;SDS011;52930;51.464;11.764;2023-07-13T08:43:07;6.03;;;1.83;;
66129;SDS011;52930;51.464;11.764;2023-07-13T08:48:11;7.33;;;1.63;;
66129;SDS011;52930;51.464;11.764;2023-07-13T08:50:49;6.13;;;1.58;;
66129;SDS011;52930;51.464;11.764;2023-07-13T08:53:16;6.90;;;1.80;;
66129;SDS011;52930;51.464;11.764;2023-07-13T08:55:42;6.00;;;1.87;;
66129;SDS011;52930;51.464;11.764;2023-07-13T08:58:14;5.68;;;1.98;;
66129;SDS011;52930;51.464;11.764;2023-07-13T09:01:04;5.05;;;1.90;;
66129;SDS011;52930;51.464;11.764;2023-07-13T09:03:37;6.03;;;1.67;;
66129;SDS011;52930;51.464;11.764;2023-07-13T09:06:06;5.88;;;2.00;;
66129;SDS011;52930;51.464;11.764;2023-07-13T09:13:44;6.43;;;1.88;;
66129;SDS011;52930;51.464;11.764;2023-07-13T09:16:20;10.13;;;2.23;;
66129;SDS011;52930;51.464;11.764;2023-07-13T09:18:47;8.45;;;1.73;;
66129;SDS011;52930;51.464;11.764;2023-07-13T09:21:19;6.53;;;1.50;;
66129;SDS011;52930;51.464;11.764;2023-07-13T09:23:47;7.78;;;1.98;;
66129;SDS011;52930;51.464;11.764;2023-07-13T09:26:18;8.50;;;2.10;;
66129;SDS011;52930;51.464;11.764;2023-07-13T09:28:46;5.55;;;1.70;;
66129;SDS011;52930;51.464;11.764;2023-07-13T09:31:17;5.82;;;1.85;;
66129;SDS011;52930;51.464;11.764;2023-07-13T09:33:47;7.07;;;2.20;;
66129;SDS011;52930;51.464;11.764;2023-07-13T09:46:55;16.42;;;3.00;;
66129;SDS011;52930;51.464;11.764;2023-07-13T09:49:29;20.13;;;3.63;;
66129;SDS011;52930;51.464;11.764;2023-07-13T09:52:02;8.30;;;2.10;;
66129;SDS011;52930;51.464;11.764;2023-07-13T09:54:32;7.07;;;1.67;;
66129;SDS011;52930;51.464;11.764;2023-07-13T09:56:58;4.68;;;1.88;;
66129;SDS011;52930;51.464;11.764;2023-07-13T09:59:28;5.95;;;1.67;;
66129;SDS011;52930;51.464;11.764;2023-07-13T10:01:56;8.32;;;2.08;;
66129;SDS011;52930;51.464;11.764;2023-07-13T10:04:26;5.97;;;2.00;;
66129;SDS011;52930;51.464;11.764;2023-07-13T10:07:04;6.68;;;1.80;;
66129;SDS011;52930;51.464;11.764;2023-07-13T10:09:33;18.13;;;3.77;;
66129;SDS011;52930;51.464;11.764;2023-07-13T10:11:58;6.10;;;1.75;;
66129;SDS011;52930;51.464;11.764;2023-07-13T10:14:24;8.63;;;3.07;;
66129;SDS011;52930;51.464;11.764;2023-07-13T10:16:51;6.17;;;1.40;;
66129;SDS011;52930;51.464;11.764;2023-07-13T10:19:24;6.97;;;1.70;;
66129;SDS011;52930;51.464;11.764;2023-07-13T10:24:33;4.95;;;1.50;;
66129;SDS011;52930;51.464;11.764;2023-07-13T10:29:44;6.63;;;1.47;;
66129;SDS011;52930;51.464;11.764;2023-07-13T10:32:12;4.63;;;1.42;;
66129;SDS011;52930;51.464;11.764;2023-07-13T10:34:37;5.40;;;1.83;;
66129;SDS011;52930;51.464;11.764;2023-07-13T10:37:05;4.72;;;1.38;;
66129;SDS011;52930;51.464;11.764;2023-07-13T10:39:31;5.68;;;1.45;;
66129;SDS011;52930;51.464;11.764;2023-07-13T10:41:59;4.37;;;1.30;;
66129;SDS011;52930;51.464;11.764;2023-07-13T10:44:29;5.07;;;1.00;;
66129;SDS011;52930;51.464;11.764;2023-07-13T10:46:57;5.10;;;1.38;;
66129;SDS011;52930;51.464;11.764;2023-07-13T10:49:24;3.83;;;0.70;;
66129;SDS011;52930;51.464;11.764;2023-07-13T10:51:52;4.55;;;1.05;;
66129;SDS011;52930;51.464;11.764;2023-07-13T10:54:21;6.23;;;1.27;;
66129;SDS011;52930;51.464;11.764;2023-07-13T10:59:46;6.85;;;1.42;;
66129;SDS011;52930;51.464;11.764;2023-07-13T11:02:23;20.33;;;3.13;;
66129;SDS011;52930;51.464;11.764;2023-07-13T11:04:51;4.45;;;0.90;;
66129;SDS011;52930;51.464;11.764;2023-07-13T11:07:23;16.60;;;1.83;;
66129;SDS011;52930;51.464;11.764;2023-07-13T11:09:53;6.50;;;1.20;;
66129;SDS011;52930;51.464;11.764;2023-07-13T11:38:27;5.25;;;0.95;;
66129;SDS011;52930;51.464;11.764;2023-07-13T11:41:02;3.25;;;0.70;;
66129;SDS011;52930;51.464;11.764;2023-07-13T11:43:29;3.63;;;0.70;;
66129;SDS011;52930;51.464;11.764;2023-07-13T11:45:55;3.47;;;1.00;;
66129;SDS011;52930;51.464;11.764;2023-07-13T11:48:27;4.22;;;0.60;;
66129;SDS011;52930;51.464;11.764;2023-07-13T11:51:00;4.60;;;1.00;;
66129;SDS011;52930;51.464;11.764;2023-07-13T11:53:30;3.03;;;0.90;;
66129;SDS011;52930;51.464;11.764;2023-07-13T11:56:00;3.58;;;0.88;;
66129;SDS011;52930;51.464;11.764;2023-07-13T11:58:26;5.17;;;1.23;;
66129;SDS011;52930;51.464;11.764;2023-07-13T12:00:53;8.18;;;1.00;;
66129;SDS011;52930;51.464;11.764;2023-07-13T12:03:20;5.72;;;0.85;;
66129;SDS011;52930;51.464;11.764;2023-07-13T12:05:57;5.57;;;1.23;;
66129;SDS011;52930;51.464;11.764;2023-07-13T12:08:28;6.72;;;1.05;;
66129;SDS011;52930;51.464;11.764;2023-07-13T12:11:03;4.37;;;0.93;;
66129;SDS011;52930;51.464;11.764;2023-07-13T12:13:36;4.68;;;0.90;;
66129;SDS011;52930;51.464;11.764;2023-07-13T12:16:07;5.43;;;1.25;;
66129;SDS011;52930;51.464;11.764;2023-07-13T12:18:36;6.03;;;1.15;;
66129;SDS011;52930;51.464;11.764;2023-07-13T12:21:02;3.30;;;0.70;;
66129;SDS011;52930;51.464;11.764;2023-07-13T12:25:53;8.27;;;1.20;;
66129;SDS011;52930;51.464;11.764;2023-07-13T12:28:28;4.10;;;0.75;;
66129;SDS011;52930;51.464;11.764;2023-07-13T12:30:57;6.53;;;1.50;;
66129;SDS011;52930;51.464;11.764;2023-07-13T12:33:24;4.83;;;1.20;;
66129;SDS011;52930;51.464;11.764;2023-07-13T12:35:53;3.78;;;0.88;;
66129;SDS011;52930;51.464;11.764;2023-07-13T12:38:18;3.40;;;0.80;;
66129;SDS011;52930;51.464;11.764;2023-07-13T12:40:46;6.78;;;1.23;;
66129;SDS011;52930;51.464;11.764;2023-07-13T12:43:14;5.07;;;1.10;;
66129;SDS011;52930;51.464;11.764;2023-07-13T12:45:54;5.50;;;1.23;;
66129;SDS011;52930;51.464;11.764;2023-07-13T12:48:23;3.40;;;0.95;;
66129;SDS011;52930;51.464;11.764;2023-07-13T12:50:49;3.45;;;0.82;;
66129;SDS011;52930;51.464;11.764;2023-07-13T12:53:19;4.90;;;1.10;;
66129;SDS011;52930;51.464;11.764;2023-07-13T12:55:47;3.90;;;1.10;;
66129;SDS011;52930;51.464;11.764;2023-07-13T12:58:16;3.40;;;0.90;;
66129;SDS011;52930;51.464;11.764;2023-07-13T13:00:49;3.85;;;1.10;;
66129;SDS011;52930;51.464;11.764;2023-07-13T13:03:52;3.78;;;0.77;;
66129;SDS011;52930;51.464;11.764;2023-07-13T13:08:44;6.47;;;1.70;;
66129;SDS011;52930;51.464;11.764;2023-07-13T13:11:11;8.30;;;1.00;;
66129;SDS011;52930;51.464;11.764;2023-07-13T13:13:37;5.65;;;1.30;;
66129;SDS011;52930;51.464;11.764;2023-07-13T13:16:08;4.23;;;1.07;;
66129;SDS011;52930;51.464;11.764;2023-07-13T13:18:36;4.97;;;0.80;;
66129;SDS011;52930;51.464;11.764;2023-07-13T13:21:01;5.43;;;0.90;;
66129;SDS011;52930;51.464;11.764;2023-07-13T13:23:27;6.50;;;0.98;;
66129;SDS011;52930;51.464;11.764;2023-07-13T13:25:53;6.27;;;1.13;;
66129;SDS011;52930;51.464;11.764;2023-07-13T13:28:19;4.30;;;1.00;;
66129;SDS011;52930;51.464;11.764;2023-07-13T13:30:46;5.97;;;1.10;;
66129;SDS011;52930;51.464;11.764;2023-07-13T13:33:14;4.50;;;0.90;;
66129;SDS011;52930;51.464;11.764;2023-07-13T13:35:42;6.88;;;1.63;;
66129;SDS011;52930;51.464;11.764;2023-07-13T13:38:19;7.07;;;1.50;;
66129;SDS011;52930;51.464;11.764;2023-07-13T13:40:46;12.18;;;1.90;;
66129;SDS011;52930;51.464;11.764;2023-07-13T13:43:18;6.40;;;1.23;;
66129;SDS011;52930;51.464;11.764;2023-07-13T13:45:55;6.07;;;1.38;;
66129;SDS011;52930;51.464;11.764;2023-07-13T13:48:30;8.48;;;2.03;;
66129;SDS011;52930;51.464;11.764;2023-07-13T13:50:57;43.73;;;5.27;;
66129;SDS011;52930;51.464;11.764;2023-07-13T13:53:23;43.33;;;6.88;;
66129;SDS011;52930;51.464;11.764;2023-07-13T13:55:49;9.13;;;1.30;;
66129;SDS011;52930;51.464;11.764;2023-07-13T13:58:15;12.43;;;2.47;;
66129;SDS011;52930;51.464;11.764;2023-07-13T14:00:40;3.95;;;0.80;;
66129;SDS011;52930;51.464;11.764;2023-07-13T14:03:08;5.13;;;1.33;;
66129;SDS011;52930;51.464;11.764;2023-07-13T14:05:42;10.57;;;1.60;;
66129;SDS011;52930;51.464;11.764;2023-07-13T14:08:14;4.10;;;1.20;;
66129;SDS011;52930;51.464;11.764;2023-07-13T14:10:41;4.80;;;1.42;;
66129;SDS011;52930;51.464;11.764;2023-07-13T14:13:11;5.50;;;1.10;;
66129;SDS011;52930;51.464;11.764;2023-07-13T14:15:44;5.88;;;1.40;;
66129;SDS011;52930;51.464;11.764;2023-07-13T14:18:10;8.07;;;1.60;;
66129;SDS011;52930;51.464;11.764;2023-07-13T14:20:36;5.10;;;1.33;;
66129;SDS011;52930;51.464;11.764;2023-07-13T14:23:02;9.37;;;2.17;;
66129;SDS011;52930;51.464;11.764;2023-07-13T14:25:27;4.50;;;1.10;;
66129;SDS011;52930;51.464;11.764;2023-07-13T14:27:53;6.67;;;1.53;;
66129;SDS011;52930;51.464;11.764;2023-07-13T14:30:24;4.43;;;0.90;;
66129;SDS011;52930;51.464;11.764;2023-07-13T14:32:49;4.75;;;1.30;;
66129;SDS011;52930;51.464;11.764;2023-07-13T14:35:16;5.17;;;1.00;;
66129;SDS011;52930;51.464;11.764;2023-07-13T14:37:43;5.65;;;0.90;;
66129;SDS011;52930;51.464;11.764;2023-07-13T14:42:38;5.93;;;1.30;;
66129;SDS011;52930;51.464;11.764;2023-07-13T14:45:03;4.10;;;0.83;;
66129;SDS011;52930;51.464;11.764;2023-07-13T14:47:29;5.78;;;0.80;;
66129;SDS011;52930;51.464;11.764;2023-07-13T14:49:55;5.50;;;1.07;;
66129;SDS011;52930;51.464;11.764;2023-07-13T14:52:21;5.17;;;1.40;;
66129;SDS011;52930;51.464;11.764;2023-07-13T14:54:48;4.25;;;1.30;;
66129;SDS011;52930;51.464;11.764;2023-07-13T14:57:14;3.17;;;1.17;;
66129;SDS011;52930;51.464;11.764;2023-07-13T14:59:44;4.38;;;1.00;;
66129;SDS011;52930;51.464;11.764;2023-07-13T15:05:00;5.53;;;0.75;;
66129;SDS011;52930;51.464;11.764;2023-07-13T15:07:26;3.90;;;0.70;;
66129;SDS011;52930;51.464;11.764;2023-07-13T15:09:52;4.75;;;0.95;;
66129;SDS011;52930;51.464;11.764;2023-07-13T15:12:17;4.60;;;0.90;;
66129;SDS011;52930;51.464;11.764;2023-07-13T15:14:43;5.05;;;0.93;;
66129;SDS011;52930;51.464;11.764;2023-07-13T15:17:22;3.27;;;0.70;;
66129;SDS011;52930;51.464;11.764;2023-07-13T15:19:51;4.25;;;0.70;;
66129;SDS011;52930;51.464;11.764;2023-07-13T15:22:16;4.00;;;0.80;;
66129;SDS011;52930;51.464;11.764;2023-07-13T15:24:42;6.90;;;0.93;;
66129;SDS011;52930;51.464;11.764;2023-07-13T15:27:11;6.57;;;1.10;;
66129;SDS011;52930;51.464;11.764;2023-07-13T15:29:37;5.45;;;1.00;;
66129;SDS011;52930;51.464;11.764;2023-07-13T15:32:02;4.93;;;0.87;;
66129;SDS011;52930;51.464;11.764;2023-07-13T15:34:28;5.10;;;0.93;;
66129;SDS011;52930;51.464;11.764;2023-07-13T15:36:53;3.40;;;0.95;;
66129;SDS011;52930;51.464;11.764;2023-07-13T15:39:19;4.27;;;0.77;;
66129;SDS011;52930;51.464;11.764;2023-07-13T15:41:44;3.90;;;1.13;;